sensor_id;sensor_type;location;lat;lon;timestamp;pressure;altitude;pressure_sealevel;temperature;humidity
54144;BME280;40050;47.324;18.792;2022-07-23T00:01:41;1002.56;;;27.21;46.02
54144;BME280;40050;47.324;18.792;2022-07-23T00:03:42;1002.54;;;27.18;46.30
54144;BME280;40050;47.324;18.792;2022-07-23T00:05:44;1002.51;;;27.12;46.60
54144;BME280;40050;47.324;18.792;2022-07-23T00:07:45;1002.58;;;27.11;46.58
54144;BME280;40050;47.324;18.792;2022-07-23T00:09:46;1002.53;;;27.04;46.76
54144;BME280;40050;47.324;18.792;2022-07-23T00:11:47;1002.54;;;27.03;47.02
54144;BME280;40050;47.324;18.792;2022-07-23T00:13:48;1002.48;;;27.00;47.05
54144;BME280;40050;47.324;18.792;2022-07-23T00:15:50;1002.48;;;26.93;47.09
54144;BME280;40050;47.324;18.792;2022-07-23T00:17:51;1002.45;;;26.90;47.26
54144;BME280;40050;47.324;18.792;2022-07-23T00:19:52;1002.45;;;26.86;47.38
54144;BME280;40050;47.324;18.792;2022-07-23T00:21:53;1002.49;;;26.81;47.54
54144;BME280;40050;47.324;18.792;2022-07-23T00:23:55;1002.50;;;26.79;47.70
54144;BME280;40050;47.324;18.792;2022-07-23T00:25:56;1002.47;;;26.76;47.59
54144;BME280;40050;47.324;18.792;2022-07-23T00:27:58;1002.49;;;26.73;47.37
54144;BME280;40050;47.324;18.792;2022-07-23T00:29:59;1002.50;;;26.70;47.11
54144;BME280;40050;47.324;18.792;2022-07-23T00:32:00;1002.54;;;26.69;46.91
54144;BME280;40050;47.324;18.792;2022-07-23T00:34:02;1002.56;;;26.68;46.79
54144;BME280;40050;47.324;18.792;2022-07-23T00:36:03;1002.50;;;26.64;46.67
54144;BME280;40050;47.324;18.792;2022-07-23T00:38:04;1002.56;;;26.65;46.78
54144;BME280;40050;47.324;18.792;2022-07-23T00:40:06;1002.55;;;26.62;46.77
54144;BME280;40050;47.324;18.792;2022-07-23T00:42:07;1002.55;;;26.58;47.11
54144;BME280;40050;47.324;18.792;2022-07-23T00:44:19;1002.65;;;26.54;47.27
54144;BME280;40050;47.324;18.792;2022-07-23T00:46:21;1002.60;;;26.48;47.51
54144;BME280;40050;47.324;18.792;2022-07-23T00:48:22;1002.55;;;26.46;47.62
54144;BME280;40050;47.324;18.792;2022-07-23T00:50:23;1002.53;;;26.45;47.72
54144;BME280;40050;47.324;18.792;2022-07-23T00:52:25;1002.56;;;26.42;47.85
54144;BME280;40050;47.324;18.792;2022-07-23T00:54:26;1002.45;;;26.36;48.16
54144;BME280;40050;47.324;18.792;2022-07-23T00:56:28;1002.46;;;26.31;48.48
54144;BME280;40050;47.324;18.792;2022-07-23T00:58:30;1002.45;;;26.26;48.47
54144;BME280;40050;47.324;18.792;2022-07-23T01:00:31;1002.40;;;26.18;48.52
54144;BME280;40050;47.324;18.792;2022-07-23T01:02:32;1002.42;;;26.14;48.77
54144;BME280;40050;47.324;18.792;2022-07-23T01:04:37;1002.45;;;26.10;48.80
54144;BME280;40050;47.324;18.792;2022-07-23T01:06:38;1002.49;;;26.07;48.77
54144;BME280;40050;47.324;18.792;2022-07-23T01:08:39;1002.47;;;26.03;48.75
54144;BME280;40050;47.324;18.792;2022-07-23T01:10:40;1002.50;;;26.00;48.59
54144;BME280;40050;47.324;18.792;2022-07-23T01:12:41;1002.46;;;25.97;48.47
54144;BME280;40050;47.324;18.792;2022-07-23T01:14:43;1002.46;;;25.91;48.30
54144;BME280;40050;47.324;18.792;2022-07-23T01:16:45;1002.43;;;25.91;48.25
54144;BME280;40050;47.324;18.792;2022-07-23T01:18:47;1002.37;;;25.86;48.38
54144;BME280;40050;47.324;18.792;2022-07-23T01:20:48;1002.46;;;25.84;48.52
54144;BME280;40050;47.324;18.792;2022-07-23T01:22:49;1002.36;;;25.76;48.45
54144;BME280;40050;47.324;18.792;2022-07-23T01:24:50;1002.39;;;25.73;48.60
54144;BME280;40050;47.324;18.792;2022-07-23T01:26:51;1002.40;;;25.73;48.88
54144;BME280;40050;47.324;18.792;2022-07-23T01:28:52;1002.41;;;25.70;49.16
54144;BME280;40050;47.324;18.792;2022-07-23T01:30:54;1002.46;;;25.66;49.16
54144;BME280;40050;47.324;18.792;2022-07-23T01:32:55;1002.42;;;25.63;49.21
54144;BME280;40050;47.324;18.792;2022-07-23T01:34:56;1002.46;;;25.57;49.14
54144;BME280;40050;47.324;18.792;2022-07-23T01:36:57;1002.46;;;25.52;49.26
54144;BME280;40050;47.324;18.792;2022-07-23T01:38:58;1002.50;;;25.48;49.37
54144;BME280;40050;47.324;18.792;2022-07-23T01:40:59;1002.45;;;25.42;49.53
54144;BME280;40050;47.324;18.792;2022-07-23T01:43:00;1002.48;;;25.40;49.79
54144;BME280;40050;47.324;18.792;2022-07-23T01:45:02;1002.53;;;25.35;49.82
54144;BME280;40050;47.324;18.792;2022-07-23T01:47:03;1002.53;;;25.31;49.98
54144;BME280;40050;47.324;18.792;2022-07-23T01:49:04;1002.50;;;25.27;49.97
54144;BME280;40050;47.324;18.792;2022-07-23T01:51:05;1002.46;;;25.24;50.14
54144;BME280;40050;47.324;18.792;2022-07-23T01:53:06;1002.37;;;25.21;50.30
54144;BME280;40050;47.324;18.792;2022-07-23T01:55:07;1002.40;;;25.17;50.48
54144;BME280;40050;47.324;18.792;2022-07-23T01:57:08;1002.41;;;25.17;50.77
54144;BME280;40050;47.324;18.792;2022-07-23T01:59:09;1002.46;;;25.15;50.75
54144;BME280;40050;47.324;18.792;2022-07-23T02:01:10;1002.40;;;25.12;50.70
54144;BME280;40050;47.324;18.792;2022-07-23T02:03:11;1002.38;;;25.11;50.68
54144;BME280;40050;47.324;18.792;2022-07-23T02:05:12;1002.36;;;25.05;50.58
54144;BME280;40050;47.324;18.792;2022-07-23T02:07:14;1002.40;;;25.05;50.33
54144;BME280;40050;47.324;18.792;2022-07-23T02:09:15;1002.43;;;25.01;50.19
54144;BME280;40050;47.324;18.792;2022-07-23T02:11:16;1002.46;;;24.99;49.99
54144;BME280;40050;47.324;18.792;2022-07-23T02:13:17;1002.41;;;24.95;50.00
54144;BME280;40050;47.324;18.792;2022-07-23T02:15:18;1002.44;;;24.91;50.09
54144;BME280;40050;47.324;18.792;2022-07-23T02:17:19;1002.48;;;24.90;50.14
54144;BME280;40050;47.324;18.792;2022-07-23T02:19:20;1002.54;;;24.88;50.30
54144;BME280;40050;47.324;18.792;2022-07-23T02:21:21;1002.54;;;24.84;50.50
54144;BME280;40050;47.324;18.792;2022-07-23T02:23:22;1002.54;;;24.80;50.38
54144;BME280;40050;47.324;18.792;2022-07-23T02:25:23;1002.49;;;24.77;50.32
54144;BME280;40050;47.324;18.792;2022-07-23T02:27:24;1002.47;;;24.72;50.46
54144;BME280;40050;47.324;18.792;2022-07-23T02:29:25;1002.49;;;24.72;50.70
54144;BME280;40050;47.324;18.792;2022-07-23T02:31:26;1002.53;;;24.72;50.88
54144;BME280;40050;47.324;18.792;2022-07-23T02:33:28;1002.48;;;24.68;51.10
54144;BME280;40050;47.324;18.792;2022-07-23T02:35:29;1002.53;;;24.70;51.15
54144;BME280;40050;47.324;18.792;2022-07-23T02:37:30;1002.46;;;24.69;51.23
54144;BME280;40050;47.324;18.792;2022-07-23T02:39:30;1002.48;;;24.72;51.43
54144;BME280;40050;47.324;18.792;2022-07-23T02:41:31;1002.42;;;24.70;51.32
54144;BME280;40050;47.324;18.792;2022-07-23T02:43:33;1002.49;;;24.73;51.30
54144;BME280;40050;47.324;18.792;2022-07-23T02:45:34;1002.48;;;24.72;51.26
54144;BME280;40050;47.324;18.792;2022-07-23T02:47:35;1002.52;;;24.73;51.32
54144;BME280;40050;47.324;18.792;2022-07-23T02:49:37;1002.54;;;24.71;51.31
54144;BME280;40050;47.324;18.792;2022-07-23T02:51:39;1002.52;;;24.64;51.41
54144;BME280;40050;47.324;18.792;2022-07-23T02:53:40;1002.48;;;24.60;51.66
54144;BME280;40050;47.324;18.792;2022-07-23T02:55:41;1002.50;;;24.60;51.63
54144;BME280;40050;47.324;18.792;2022-07-23T02:57:43;1002.45;;;24.56;51.57
54144;BME280;40050;47.324;18.792;2022-07-23T02:59:44;1002.44;;;24.54;51.81
54144;BME280;40050;47.324;18.792;2022-07-23T03:01:46;1002.44;;;24.50;51.92
54144;BME280;40050;47.324;18.792;2022-07-23T03:03:48;1002.47;;;24.49;51.80
54144;BME280;40050;47.324;18.792;2022-07-23T03:05:50;1002.47;;;24.48;51.88
54144;BME280;40050;47.324;18.792;2022-07-23T03:07:51;1002.46;;;24.46;51.96
54144;BME280;40050;47.324;18.792;2022-07-23T03:09:53;1002.41;;;24.42;52.13
54144;BME280;40050;47.324;18.792;2022-07-23T03:11:54;1002.42;;;24.41;52.11
54144;BME280;40050;47.324;18.792;2022-07-23T03:13:55;1002.46;;;24.42;52.14
54144;BME280;40050;47.324;18.792;2022-07-23T03:15:56;1002.43;;;24.40;52.21
54144;BME280;40050;47.324;18.792;2022-07-23T03:17:57;1002.42;;;24.38;52.26
54144;BME280;40050;47.324;18.792;2022-07-23T03:19:58;1002.42;;;24.38;52.60
54144;BME280;40050;47.324;18.792;2022-07-23T03:21:59;1002.40;;;24.34;52.66
54144;BME280;40050;47.324;18.792;2022-07-23T03:24:01;1002.39;;;24.35;52.56
54144;BME280;40050;47.324;18.792;2022-07-23T03:26:02;1002.38;;;24.36;52.55
54144;BME280;40050;47.324;18.792;2022-07-23T03:28:04;1002.36;;;24.36;52.46
54144;BME280;40050;47.324;18.792;2022-07-23T03:30:05;1002.43;;;24.38;52.70
54144;BME280;40050;47.324;18.792;2022-07-23T03:32:07;1002.37;;;24.34;52.73
54144;BME280;40050;47.324;18.792;2022-07-23T03:34:12;1002.39;;;24.32;52.99
54144;BME280;40050;47.324;18.792;2022-07-23T03:36:13;1002.35;;;24.29;53.25
54144;BME280;40050;47.324;18.792;2022-07-23T03:38:15;1002.45;;;24.30;53.11
54144;BME280;40050;47.324;18.792;2022-07-23T03:40:16;1002.48;;;24.25;53.12
54144;BME280;40050;47.324;18.792;2022-07-23T03:42:17;1002.44;;;24.25;53.28
54144;BME280;40050;47.324;18.792;2022-07-23T03:44:19;1002.50;;;24.25;53.46
54144;BME280;40050;47.324;18.792;2022-07-23T03:46:20;1002.50;;;24.23;53.49
54144;BME280;40050;47.324;18.792;2022-07-23T03:48:22;1002.54;;;24.24;53.51
54144;BME280;40050;47.324;18.792;2022-07-23T03:50:23;1002.52;;;24.23;53.38
54144;BME280;40050;47.324;18.792;2022-07-23T03:52:24;1002.59;;;24.26;53.44
54144;BME280;40050;47.324;18.792;2022-07-23T03:54:25;1002.55;;;24.24;53.33
54144;BME280;40050;47.324;18.792;2022-07-23T03:56:26;1002.59;;;24.28;53.36
54144;BME280;40050;47.324;18.792;2022-07-23T03:58:27;1002.58;;;24.30;53.29
54144;BME280;40050;47.324;18.792;2022-07-23T04:00:29;1002.60;;;24.31;53.28
54144;BME280;40050;47.324;18.792;2022-07-23T04:02:30;1002.62;;;24.33;53.41
54144;BME280;40050;47.324;18.792;2022-07-23T04:04:31;1002.58;;;24.34;53.32
54144;BME280;40050;47.324;18.792;2022-07-23T04:06:32;1002.54;;;24.31;53.36
54144;BME280;40050;47.324;18.792;2022-07-23T04:08:33;1002.62;;;24.36;53.58
54144;BME280;40050;47.324;18.792;2022-07-23T04:10:34;1002.62;;;24.38;53.49
54144;BME280;40050;47.324;18.792;2022-07-23T04:12:35;1002.60;;;24.40;53.40
54144;BME280;40050;47.324;18.792;2022-07-23T04:14:36;1002.57;;;24.42;53.54
54144;BME280;40050;47.324;18.792;2022-07-23T04:16:37;1002.52;;;24.41;53.76
54144;BME280;40050;47.324;18.792;2022-07-23T04:18:38;1002.60;;;24.46;53.74
54144;BME280;40050;47.324;18.792;2022-07-23T04:20:39;1002.58;;;24.49;53.67
54144;BME280;40050;47.324;18.792;2022-07-23T04:22:40;1002.54;;;24.49;53.72
54144;BME280;40050;47.324;18.792;2022-07-23T04:24:41;1002.61;;;24.54;53.91
54144;BME280;40050;47.324;18.792;2022-07-23T04:26:43;1002.60;;;24.56;53.89
54144;BME280;40050;47.324;18.792;2022-07-23T04:28:44;1002.58;;;24.58;54.08
54144;BME280;40050;47.324;18.792;2022-07-23T04:30:45;1002.59;;;24.61;54.07
54144;BME280;40050;47.324;18.792;2022-07-23T04:32:46;1002.54;;;24.60;54.23
54144;BME280;40050;47.324;18.792;2022-07-23T04:34:47;1002.61;;;24.66;54.28
54144;BME280;40050;47.324;18.792;2022-07-23T04:36:48;1002.58;;;24.68;54.29
54144;BME280;40050;47.324;18.792;2022-07-23T04:38:49;1002.55;;;24.69;54.55
54144;BME280;40050;47.324;18.792;2022-07-23T04:40:51;1002.61;;;24.73;54.58
54144;BME280;40050;47.324;18.792;2022-07-23T04:42:52;1002.68;;;24.79;54.43
54144;BME280;40050;47.324;18.792;2022-07-23T04:44:54;1002.74;;;24.84;54.73
54144;BME280;40050;47.324;18.792;2022-07-23T04:46:55;1002.73;;;24.88;54.75
54144;BME280;40050;47.324;18.792;2022-07-23T04:48:56;1002.73;;;24.92;54.86
54144;BME280;40050;47.324;18.792;2022-07-23T04:50:58;1002.71;;;24.95;55.17
54144;BME280;40050;47.324;18.792;2022-07-23T04:52:59;1002.67;;;25.02;55.16
54144;BME280;40050;47.324;18.792;2022-07-23T04:55:00;1002.64;;;25.08;55.25
54144;BME280;40050;47.324;18.792;2022-07-23T04:57:01;1002.66;;;25.15;55.45
54144;BME280;40050;47.324;18.792;2022-07-23T04:59:02;1002.71;;;25.23;55.37
54144;BME280;40050;47.324;18.792;2022-07-23T05:01:03;1002.66;;;25.28;55.12
54144;BME280;40050;47.324;18.792;2022-07-23T05:03:04;1002.71;;;25.35;54.49
54144;BME280;40050;47.324;18.792;2022-07-23T05:05:06;1002.75;;;25.47;54.43
54144;BME280;40050;47.324;18.792;2022-07-23T05:07:07;1002.68;;;25.56;54.01
54144;BME280;40050;47.324;18.792;2022-07-23T05:09:09;1002.72;;;25.66;53.79
54144;BME280;40050;47.324;18.792;2022-07-23T05:11:10;1002.72;;;25.76;53.62
54144;BME280;40050;47.324;18.792;2022-07-23T05:13:13;1002.70;;;25.87;53.50
54144;BME280;40050;47.324;18.792;2022-07-23T05:15:15;1002.67;;;25.99;53.22
54144;BME280;40050;47.324;18.792;2022-07-23T05:17:18;1002.72;;;26.14;52.94
54144;BME280;40050;47.324;18.792;2022-07-23T05:19:19;1002.66;;;26.19;52.83
54144;BME280;40050;47.324;18.792;2022-07-23T05:21:21;1002.70;;;26.35;52.78
54144;BME280;40050;47.324;18.792;2022-07-23T05:23:22;1002.71;;;26.47;52.84
54144;BME280;40050;47.324;18.792;2022-07-23T05:25:23;1002.71;;;26.60;51.70
54144;BME280;40050;47.324;18.792;2022-07-23T05:27:24;1002.74;;;26.72;51.51
54144;BME280;40050;47.324;18.792;2022-07-23T05:29:26;1002.78;;;26.88;51.67
54144;BME280;40050;47.324;18.792;2022-07-23T05:31:27;1002.81;;;27.02;50.67
54144;BME280;40050;47.324;18.792;2022-07-23T05:33:29;1002.81;;;27.17;50.64
54144;BME280;40050;47.324;18.792;2022-07-23T05:35:30;1002.80;;;27.31;50.21
54144;BME280;40050;47.324;18.792;2022-07-23T05:37:32;1002.81;;;27.47;50.51
54144;BME280;40050;47.324;18.792;2022-07-23T05:39:33;1002.82;;;27.63;50.37
54144;BME280;40050;47.324;18.792;2022-07-23T05:41:34;1002.80;;;27.79;48.65
54144;BME280;40050;47.324;18.792;2022-07-23T05:43:35;1002.80;;;27.95;47.46
54144;BME280;40050;47.324;18.792;2022-07-23T05:45:37;1002.79;;;28.09;46.94
54144;BME280;40050;47.324;18.792;2022-07-23T05:47:45;1002.71;;;28.23;46.77
54144;BME280;40050;47.324;18.792;2022-07-23T05:49:49;1002.71;;;28.38;47.09
54144;BME280;40050;47.324;18.792;2022-07-23T05:51:51;1002.64;;;28.50;45.75
54144;BME280;40050;47.324;18.792;2022-07-23T05:53:52;1002.68;;;28.64;45.91
54144;BME280;40050;47.324;18.792;2022-07-23T05:55:54;1002.67;;;28.79;46.29
54144;BME280;40050;47.324;18.792;2022-07-23T05:57:58;1002.65;;;28.93;45.62
54144;BME280;40050;47.324;18.792;2022-07-23T05:59:59;1002.75;;;29.08;45.31
54144;BME280;40050;47.324;18.792;2022-07-23T06:02:01;1002.76;;;29.23;45.48
54144;BME280;40050;47.324;18.792;2022-07-23T06:04:03;1002.69;;;29.38;46.27
54144;BME280;40050;47.324;18.792;2022-07-23T06:06:04;1002.65;;;29.53;46.46
54144;BME280;40050;47.324;18.792;2022-07-23T06:08:06;1002.62;;;29.72;45.19
54144;BME280;40050;47.324;18.792;2022-07-23T06:10:07;1002.54;;;29.87;43.31
54144;BME280;40050;47.324;18.792;2022-07-23T06:12:08;1002.53;;;30.00;43.26
54144;BME280;40050;47.324;18.792;2022-07-23T06:14:10;1002.49;;;30.15;42.76
54144;BME280;40050;47.324;18.792;2022-07-23T06:16:11;1002.52;;;30.34;42.93
54144;BME280;40050;47.324;18.792;2022-07-23T06:18:12;1002.51;;;30.51;42.51
54144;BME280;40050;47.324;18.792;2022-07-23T06:20:19;1002.48;;;30.66;42.08
54144;BME280;40050;47.324;18.792;2022-07-23T06:22:22;1002.39;;;30.86;43.05
54144;BME280;40050;47.324;18.792;2022-07-23T06:24:28;1002.46;;;31.05;42.36
54144;BME280;40050;47.324;18.792;2022-07-23T06:26:30;1002.41;;;31.22;41.05
54144;BME280;40050;47.324;18.792;2022-07-23T06:28:32;1002.45;;;31.40;39.46
54144;BME280;40050;47.324;18.792;2022-07-23T06:30:37;1002.42;;;31.57;39.02
54144;BME280;40050;47.324;18.792;2022-07-23T06:32:39;1002.42;;;31.70;39.40
54144;BME280;40050;47.324;18.792;2022-07-23T06:34:41;1002.47;;;31.90;40.11
54144;BME280;40050;47.324;18.792;2022-07-23T06:46:24;1002.47;;;32.84;38.73
54144;BME280;40050;47.324;18.792;2022-07-23T06:48:25;1002.48;;;33.03;39.28
54144;BME280;40050;47.324;18.792;2022-07-23T06:59:29;1002.50;;;34.12;36.50
54144;BME280;40050;47.324;18.792;2022-07-23T07:01:31;1002.47;;;34.24;37.03
54144;BME280;40050;47.324;18.792;2022-07-23T07:03:35;1002.46;;;34.36;34.09
54144;BME280;40050;47.324;18.792;2022-07-23T07:05:44;1002.40;;;34.59;32.94
54144;BME280;40050;47.324;18.792;2022-07-23T07:08:03;1002.34;;;34.75;33.18
54144;BME280;40050;47.324;18.792;2022-07-23T07:10:07;1002.34;;;34.88;32.00
54144;BME280;40050;47.324;18.792;2022-07-23T07:17:13;1002.31;;;35.24;31.22
54144;BME280;40050;47.324;18.792;2022-07-23T07:19:15;1002.32;;;35.31;31.39
54144;BME280;40050;47.324;18.792;2022-07-23T07:21:16;1002.28;;;35.40;31.06
54144;BME280;40050;47.324;18.792;2022-07-23T07:23:18;1002.30;;;35.55;30.73
54144;BME280;40050;47.324;18.792;2022-07-23T07:25:20;1002.27;;;35.68;29.79
54144;BME280;40050;47.324;18.792;2022-07-23T07:27:21;1002.31;;;35.76;29.61
54144;BME280;40050;47.324;18.792;2022-07-23T07:29:22;1002.33;;;35.88;30.09
54144;BME280;40050;47.324;18.792;2022-07-23T07:31:24;1002.24;;;35.91;29.71
54144;BME280;40050;47.324;18.792;2022-07-23T07:33:25;1002.22;;;35.93;29.60
54144;BME280;40050;47.324;18.792;2022-07-23T07:35:26;1002.26;;;36.02;29.95
54144;BME280;40050;47.324;18.792;2022-07-23T07:37:27;1002.24;;;36.07;29.13
54144;BME280;40050;47.324;18.792;2022-07-23T07:39:29;1002.24;;;36.18;28.63
54144;BME280;40050;47.324;18.792;2022-07-23T07:41:30;1002.26;;;36.21;27.84
54144;BME280;40050;47.324;18.792;2022-07-23T07:43:32;1002.24;;;36.24;28.11
54144;BME280;40050;47.324;18.792;2022-07-23T07:45:32;1002.21;;;36.26;28.09
54144;BME280;40050;47.324;18.792;2022-07-23T07:47:33;1002.23;;;36.29;27.85
54144;BME280;40050;47.324;18.792;2022-07-23T07:49:35;1002.19;;;36.32;27.97
54144;BME280;40050;47.324;18.792;2022-07-23T07:51:36;1002.20;;;36.39;28.72
54144;BME280;40050;47.324;18.792;2022-07-23T07:53:37;1002.16;;;36.51;28.82
54144;BME280;40050;47.324;18.792;2022-07-23T07:55:38;1002.20;;;36.66;27.89
54144;BME280;40050;47.324;18.792;2022-07-23T07:57:40;1002.21;;;36.79;28.23
54144;BME280;40050;47.324;18.792;2022-07-23T07:59:42;1002.21;;;36.94;27.74
54144;BME280;40050;47.324;18.792;2022-07-23T08:01:43;1002.23;;;37.10;28.39
54144;BME280;40050;47.324;18.792;2022-07-23T08:08:55;1002.21;;;37.68;27.28
54144;BME280;40050;47.324;18.792;2022-07-23T08:10:56;1002.24;;;37.75;27.20
54144;BME280;40050;47.324;18.792;2022-07-23T08:12:58;1002.25;;;37.80;26.81
54144;BME280;40050;47.324;18.792;2022-07-23T08:14:59;1002.21;;;37.84;27.45
54144;BME280;40050;47.324;18.792;2022-07-23T08:17:01;1002.22;;;37.95;27.07
54144;BME280;40050;47.324;18.792;2022-07-23T08:19:02;1002.19;;;38.06;26.93
54144;BME280;40050;47.324;18.792;2022-07-23T08:21:04;1002.18;;;38.18;26.54
54144;BME280;40050;47.324;18.792;2022-07-23T08:23:07;1002.15;;;38.24;25.96
54144;BME280;40050;47.324;18.792;2022-07-23T08:25:08;1002.23;;;38.34;26.18
54144;BME280;40050;47.324;18.792;2022-07-23T08:27:10;1002.25;;;38.40;26.58
54144;BME280;40050;47.324;18.792;2022-07-23T08:29:11;1002.30;;;38.55;26.54
54144;BME280;40050;47.324;18.792;2022-07-23T08:31:12;1002.32;;;38.61;26.09
54144;BME280;40050;47.324;18.792;2022-07-23T08:33:15;1002.32;;;38.72;25.38
54144;BME280;40050;47.324;18.792;2022-07-23T08:35:17;1002.36;;;38.82;25.65
54144;BME280;40050;47.324;18.792;2022-07-23T08:37:19;1002.35;;;38.86;25.36
54144;BME280;40050;47.324;18.792;2022-07-23T08:39:21;1002.30;;;38.81;24.69
54144;BME280;40050;47.324;18.792;2022-07-23T08:41:22;1002.29;;;38.88;24.94
54144;BME280;40050;47.324;18.792;2022-07-23T08:43:24;1002.32;;;38.89;24.61
54144;BME280;40050;47.324;18.792;2022-07-23T08:45:29;1002.30;;;38.93;25.38
54144;BME280;40050;47.324;18.792;2022-07-23T08:47:31;1002.26;;;39.11;24.92
54144;BME280;40050;47.324;18.792;2022-07-23T08:49:32;1002.22;;;39.30;25.14
54144;BME280;40050;47.324;18.792;2022-07-23T08:51:33;1002.20;;;39.50;25.08
54144;BME280;40050;47.324;18.792;2022-07-23T08:53:35;1002.16;;;39.68;24.47
54144;BME280;40050;47.324;18.792;2022-07-23T08:55:36;1002.14;;;39.80;23.49
54144;BME280;40050;47.324;18.792;2022-07-23T08:57:37;1002.13;;;39.89;23.87
54144;BME280;40050;47.324;18.792;2022-07-23T08:59:38;1002.09;;;40.01;24.02
54144;BME280;40050;47.324;18.792;2022-07-23T09:01:39;1002.06;;;40.13;23.79
54144;BME280;40050;47.324;18.792;2022-07-23T09:03:41;1002.06;;;40.24;24.31
54144;BME280;40050;47.324;18.792;2022-07-23T09:05:42;1002.07;;;40.36;23.92
54144;BME280;40050;47.324;18.792;2022-07-23T09:08:09;1002.06;;;40.48;23.14
54144;BME280;40050;47.324;18.792;2022-07-23T09:10:10;1002.04;;;40.59;23.01
54144;BME280;40050;47.324;18.792;2022-07-23T09:12:12;1002.07;;;40.61;23.03
54144;BME280;40050;47.324;18.792;2022-07-23T09:14:13;1002.05;;;40.66;22.61
54144;BME280;40050;47.324;18.792;2022-07-23T09:16:15;1002.11;;;40.72;22.74
54144;BME280;40050;47.324;18.792;2022-07-23T09:18:17;1002.15;;;40.74;22.62
54144;BME280;40050;47.324;18.792;2022-07-23T09:20:18;1001.99;;;40.69;22.48
54144;BME280;40050;47.324;18.792;2022-07-23T09:22:23;1001.99;;;40.73;22.95
54144;BME280;40050;47.324;18.792;2022-07-23T09:24:26;1002.01;;;40.86;22.92
54144;BME280;40050;47.324;18.792;2022-07-23T09:26:40;1002.01;;;40.99;22.78
54144;BME280;40050;47.324;18.792;2022-07-23T09:31:07;1002.01;;;41.17;22.18
54144;BME280;40050;47.324;18.792;2022-07-23T09:33:12;1002.01;;;41.25;22.12
54144;BME280;40050;47.324;18.792;2022-07-23T09:35:13;1002.02;;;41.25;21.81
54144;BME280;40050;47.324;18.792;2022-07-23T09:37:17;1001.94;;;41.15;21.62
54144;BME280;40050;47.324;18.792;2022-07-23T09:39:26;1002.00;;;41.24;21.91
54144;BME280;40050;47.324;18.792;2022-07-23T09:41:33;1002.01;;;41.14;21.00
54144;BME280;40050;47.324;18.792;2022-07-23T09:43:35;1001.99;;;41.10;21.17
54144;BME280;40050;47.324;18.792;2022-07-23T09:45:36;1001.97;;;41.03;21.45
54144;BME280;40050;47.324;18.792;2022-07-23T09:47:37;1001.95;;;41.08;21.63
54144;BME280;40050;47.324;18.792;2022-07-23T09:49:38;1001.94;;;41.15;21.91
54144;BME280;40050;47.324;18.792;2022-07-23T09:51:52;1001.91;;;41.26;21.77
54144;BME280;40050;47.324;18.792;2022-07-23T09:53:54;1001.91;;;41.25;21.35
54144;BME280;40050;47.324;18.792;2022-07-23T09:55:55;1001.90;;;41.24;21.39
54144;BME280;40050;47.324;18.792;2022-07-23T09:57:59;1001.89;;;41.20;21.69
54144;BME280;40050;47.324;18.792;2022-07-23T10:00:01;1001.92;;;41.24;21.29
54144;BME280;40050;47.324;18.792;2022-07-23T10:02:02;1001.81;;;41.25;21.49
54144;BME280;40050;47.324;18.792;2022-07-23T10:04:04;1001.79;;;41.26;21.03
54144;BME280;40050;47.324;18.792;2022-07-23T10:06:07;1001.83;;;41.25;21.00
54144;BME280;40050;47.324;18.792;2022-07-23T10:08:10;1001.81;;;41.24;20.53
54144;BME280;40050;47.324;18.792;2022-07-23T10:10:12;1001.79;;;41.19;20.36
54144;BME280;40050;47.324;18.792;2022-07-23T10:12:14;1001.75;;;41.18;20.79
54144;BME280;40050;47.324;18.792;2022-07-23T10:14:15;1001.73;;;41.16;20.77
54144;BME280;40050;47.324;18.792;2022-07-23T10:16:17;1001.71;;;41.22;21.21
54144;BME280;40050;47.324;18.792;2022-07-23T10:18:18;1001.71;;;41.26;21.68
54144;BME280;40050;47.324;18.792;2022-07-23T10:20:20;1001.63;;;41.25;21.22
54144;BME280;40050;47.324;18.792;2022-07-23T10:22:37;1001.57;;;41.26;21.17
54144;BME280;40050;47.324;18.792;2022-07-23T10:24:50;1001.59;;;41.28;21.54
54144;BME280;40050;47.324;18.792;2022-07-23T10:27:09;1001.61;;;41.24;21.02
54144;BME280;40050;47.324;18.792;2022-07-23T10:29:19;1001.62;;;41.22;21.10
54144;BME280;40050;47.324;18.792;2022-07-23T10:34:02;1001.57;;;41.08;21.54
54144;BME280;40050;47.324;18.792;2022-07-23T10:36:22;1001.56;;;41.12;21.31
54144;BME280;40050;47.324;18.792;2022-07-23T10:38:31;1001.51;;;41.12;21.09
54144;BME280;40050;47.324;18.792;2022-07-23T10:40:34;1001.53;;;41.10;21.98
54144;BME280;40050;47.324;18.792;2022-07-23T10:42:35;1001.53;;;41.10;21.20
54144;BME280;40050;47.324;18.792;2022-07-23T10:44:38;1001.48;;;41.03;21.08
54144;BME280;40050;47.324;18.792;2022-07-23T10:49:20;1001.48;;;40.94;20.83
54144;BME280;40050;47.324;18.792;2022-07-23T10:51:21;1001.41;;;40.87;20.93
54144;BME280;40050;47.324;18.792;2022-07-23T10:53:22;1001.40;;;40.90;21.04
54144;BME280;40050;47.324;18.792;2022-07-23T10:57:47;1001.47;;;40.82;21.15
54144;BME280;40050;47.324;18.792;2022-07-23T11:02:22;1001.31;;;40.82;22.69
54144;BME280;40050;47.324;18.792;2022-07-23T11:04:47;1001.31;;;40.82;21.11
54144;BME280;40050;47.324;18.792;2022-07-23T11:09:24;1001.26;;;40.59;20.70
54144;BME280;40050;47.324;18.792;2022-07-23T11:11:25;1001.19;;;40.53;20.60
54144;BME280;40050;47.324;18.792;2022-07-23T11:13:39;1001.17;;;40.53;20.77
54144;BME280;40050;47.324;18.792;2022-07-23T11:16:03;1001.14;;;40.47;20.69
54144;BME280;40050;47.324;18.792;2022-07-23T11:17:58;1001.16;;;40.51;20.50
54144;BME280;40050;47.324;18.792;2022-07-23T11:20:12;1001.11;;;40.47;20.26
54144;BME280;40050;47.324;18.792;2022-07-23T11:22:33;1001.09;;;40.40;20.71
54144;BME280;40050;47.324;18.792;2022-07-23T11:24:28;1001.04;;;40.42;21.42
54144;BME280;40050;47.324;18.792;2022-07-23T11:28:49;1000.99;;;40.22;21.03
54144;BME280;40050;47.324;18.792;2022-07-23T11:30:51;1000.95;;;39.91;21.02
54144;BME280;40050;47.324;18.792;2022-07-23T11:32:52;1000.93;;;40.13;21.48
54144;BME280;40050;47.324;18.792;2022-07-23T11:34:54;1000.87;;;40.21;21.29